Time;durP1;ratioP1;P1;durP2;ratioP2;P2;SDS_P1;SDS_P2;PMS_P1;PMS_P2;Temp;Humidity;BMP_temperature;BMP_pressure;BME280_temperature;BME280_humidity;BME280_pressure;Samples;Min_cycle;Max_cycle;Signal;HPM_P1;HPM_P2
2023/08/19 00:02:10;;;;;;;6.27;5.77;;;24.50;87.80;;;;;;6166170;23;20447;-69
2023/08/19 00:04:39;;;;;;;5.93;5.43;;;24.50;87.90;;;;;;6170585;22;20417;-69
2023/08/19 00:07:07;;;;;;;5.90;5.40;;;24.50;87.90;;;;;;6170393;22;20894;-69
2023/08/19 00:09:38;;;;;;;5.40;4.90;;;24.50;87.90;;;;;;6171358;23;20393;-69
2023/08/19 00:12:06;;;;;;;6.63;5.93;;;24.50;87.90;;;;;;6145521;23;20437;-69
2023/08/19 00:14:35;;;;;;;6.40;5.80;;;24.50;87.90;;;;;;6140541;23;20411;-69
2023/08/19 00:17:03;;;;;;;6.13;5.63;;;24.50;88.00;;;;;;6165278;22;20440;-69
2023/08/19 00:19:33;;;;;;;6.03;5.63;;;24.50;88.00;;;;;;6170938;23;20396;-68
2023/08/19 00:22:01;;;;;;;5.67;5.23;;;24.50;87.90;;;;;;6170241;22;20436;-68
2023/08/19 00:24:30;;;;;;;5.43;4.93;;;24.50;88.00;;;;;;6171163;23;20750;-69
2023/08/19 00:27:00;;;;;;;6.90;6.40;;;24.50;88.00;;;;;;6145747;23;20815;-69
2023/08/19 00:29:29;;;;;;;5.57;5.17;;;24.50;88.10;;;;;;6140959;23;20395;-69
2023/08/19 00:31:57;;;;;;;5.33;4.93;;;24.50;87.90;;;;;;6162558;23;20640;-68
2023/08/19 00:34:40;;;;;;;5.70;5.20;;;24.50;88.00;;;;;;6170279;22;20381;-67
2023/08/19 00:37:09;;;;;;;6.37;5.90;;;24.50;88.00;;;;;;6170214;22;20527;-69
2023/08/19 00:39:37;;;;;;;6.33;5.30;;;24.50;88.00;;;;;;6170978;23;20381;-69
2023/08/19 00:42:07;;;;;;;6.53;5.83;;;24.50;87.90;;;;;;6144018;23;20469;-69
2023/08/19 00:44:35;;;;;;;5.23;4.83;;;24.50;88.10;;;;;;6141230;23;20922;-68
2023/08/19 00:47:04;;;;;;;7.43;6.00;;;24.50;88.10;;;;;;6139983;23;20500;-69
2023/08/19 00:49:34;;;;;;;5.70;5.30;;;24.50;88.10;;;;;;6139943;23;20390;-67
2023/08/19 00:52:04;;;;;;;5.90;5.40;;;24.50;88.00;;;;;;6139470;23;20764;-67
2023/08/19 00:54:34;;;;;;;6.40;5.90;;;24.50;88.10;;;;;;6140465;23;20382;-69
2023/08/19 00:57:02;;;;;;;6.20;5.70;;;24.50;88.00;;;;;;6139485;23;20437;-69
2023/08/19 00:59:30;;;;;;;6.20;5.60;;;24.50;88.00;;;;;;6139869;23;20892;-69
2023/08/19 01:02:01;;;;;;;6.03;5.53;;;24.50;88.00;;;;;;6139473;23;20438;-67
2023/08/19 01:04:30;;;;;;;6.80;6.20;;;24.50;88.00;;;;;;6140151;23;20432;-68
2023/08/19 01:07:09;;;;;;;6.90;6.20;;;24.50;87.80;;;;;;6115455;23;20449;-68
2023/08/19 01:09:48;;;;;;;5.53;5.03;;;24.50;87.80;;;;;;6143116;23;20386;-69
2023/08/19 01:12:24;;;;;;;5.80;5.30;;;24.50;87.90;;;;;;6139809;23;20838;-68
2023/08/19 01:15:05;;;;;;;6.30;5.70;;;24.50;87.80;;;;;;6142759;23;20712;-69
2023/08/19 01:17:35;;;;;;;5.87;5.37;;;24.50;87.80;;;;;;6116095;23;20707;-68
2023/08/19 01:20:05;;;;;;;6.53;6.03;;;24.50;87.90;;;;;;6138636;23;20405;-69
2023/08/19 01:22:45;;;;;;;5.87;5.40;;;24.50;87.90;;;;;;6139761;23;20417;-68
2023/08/19 01:25:15;;;;;;;6.80;6.30;;;24.50;87.80;;;;;;6140998;23;20421;-69
2023/08/19 01:27:44;;;;;;;6.70;6.00;;;24.50;87.80;;;;;;6140165;22;20771;-69
2023/08/19 01:30:14;;;;;;;6.63;5.90;;;24.50;87.80;;;;;;6140453;23;20405;-69
2023/08/19 01:32:43;;;;;;;8.73;5.90;;;24.50;87.80;;;;;;6140181;23;20940;-68
2023/08/19 01:35:13;;;;;;;6.27;5.77;;;24.50;87.80;;;;;;6141812;23;20429;-69
2023/08/19 01:37:48;;;;;;;6.47;5.97;;;24.50;87.80;;;;;;6170390;23;20408;-69
2023/08/19 01:40:19;;;;;;;6.43;5.80;;;24.50;87.80;;;;;;6173432;22;20380;-69
2023/08/19 01:42:49;;;;;;;5.40;5.00;;;24.50;87.80;;;;;;6173122;23;20665;-69
2023/08/19 01:45:18;;;;;;;5.90;5.40;;;24.50;87.70;;;;;;6174730;22;20420;-69
2023/08/19 01:47:51;;;;;;;6.97;5.80;;;24.50;87.70;;;;;;6175530;23;20890;-69
2023/08/19 01:50:20;;;;;;;6.50;5.77;;;24.50;87.70;;;;;;6174028;23;20380;-69
2023/08/19 01:52:49;;;;;;;5.90;5.40;;;24.50;87.50;;;;;;6172934;23;20393;-68
2023/08/19 01:55:19;;;;;;;5.63;5.13;;;24.50;87.50;;;;;;6174019;23;20400;-69
2023/08/19 01:57:47;;;;;;;6.03;5.57;;;24.50;87.50;;;;;;6174920;23;20412;-69
2023/08/19 02:00:16;;;;;;;5.67;5.27;;;24.50;87.40;;;;;;6173628;23;20408;-69
2023/08/19 02:02:44;;;;;;;5.87;5.37;;;24.50;87.40;;;;;;6179115;23;20675;-69
2023/08/19 02:05:14;;;;;;;5.80;5.23;;;24.50;87.40;;;;;;6177999;23;20983;-69
2023/08/19 02:07:43;;;;;;;5.57;5.07;;;24.50;87.30;;;;;;6177352;23;20465;-69
2023/08/19 02:10:12;;;;;;;6.20;5.60;;;24.50;87.30;;;;;;6178030;23;20397;-69
2023/08/19 02:12:42;;;;;;;5.67;5.17;;;24.50;87.40;;;;;;6178492;23;20697;-68
2023/08/19 02:15:10;;;;;;;5.30;4.90;;;24.50;87.30;;;;;;6177493;23;20471;-69
2023/08/19 02:17:39;;;;;;;5.97;5.47;;;24.50;87.30;;;;;;6178084;23;20424;-68
2023/08/19 02:20:08;;;;;;;6.10;5.50;;;24.50;87.30;;;;;;6175420;23;20408;-70
2023/08/19 02:22:39;;;;;;;6.20;5.70;;;24.50;87.30;;;;;;6149308;23;20679;-68
2023/08/19 02:25:08;;;;;;;5.43;5.00;;;24.50;87.40;;;;;;6148430;23;20423;-70
2023/08/19 02:27:38;;;;;;;5.33;4.83;;;24.50;87.30;;;;;;6148370;23;20464;-69
2023/08/19 02:30:10;;;;;;;5.47;5.00;;;24.50;87.30;;;;;;6148460;23;20419;-68
2023/08/19 02:32:39;;;;;;;4.90;4.50;;;24.50;87.30;;;;;;6122791;23;20406;-68
2023/08/19 02:35:08;;;;;;;6.20;5.70;;;24.50;87.30;;;;;;6146964;23;20397;-69
2023/08/19 02:37:37;;;;;;;5.10;4.70;;;24.50;87.30;;;;;;6147469;23;20656;-69
2023/08/19 02:40:07;;;;;;;5.23;4.83;;;24.50;87.30;;;;;;6147996;23;20398;-69
2023/08/19 02:42:39;;;;;;;4.80;4.50;;;24.50;87.30;;;;;;6175982;22;20401;-69
2023/08/19 02:45:10;;;;;;;7.40;5.50;;;24.50;87.30;;;;;;6176834;22;20516;-69
2023/08/19 02:47:39;;;;;;;6.20;5.07;;;24.50;87.20;;;;;;6177916;22;20412;-70
2023/08/19 02:50:09;;;;;;;5.03;4.63;;;24.50;87.20;;;;;;6176522;22;20883;-70
2023/08/19 02:52:37;;;;;;;5.60;5.20;;;24.50;87.30;;;;;;6174285;23;20436;-69
2023/08/19 02:55:06;;;;;;;5.07;4.67;;;24.50;87.30;;;;;;6175585;22;20397;-69
2023/08/19 02:57:35;;;;;;;5.83;5.10;;;24.50;87.30;;;;;;6174544;23;20432;-68
2023/08/19 03:00:04;;;;;;;5.30;4.90;;;24.50;87.30;;;;;;6174403;23;20871;-70
2023/08/19 03:02:34;;;;;;;5.50;5.00;;;24.50;87.30;;;;;;6172964;23;20409;-69
2023/08/19 03:05:04;;;;;;;5.47;5.00;;;24.50;87.30;;;;;;6171341;23;20403;-69
2023/08/19 03:07:33;;;;;;;6.00;5.50;;;24.50;87.30;;;;;;6171709;23;20654;-70
2023/08/19 03:10:02;;;;;;;5.50;5.10;;;24.50;87.30;;;;;;6170906;23;20401;-70
2023/08/19 03:12:30;;;;;;;7.40;5.50;;;24.50;87.30;;;;;;6170058;23;20439;-70
2023/08/19 03:14:59;;;;;;;5.50;5.00;;;24.50;87.30;;;;;;6171474;23;20405;-69
2023/08/19 03:17:27;;;;;;;6.33;5.80;;;24.50;87.40;;;;;;6170312;23;20428;-70
2023/08/19 03:19:57;;;;;;;6.30;5.30;;;24.50;87.30;;;;;;6171097;23;20860;-68
2023/08/19 03:22:26;;;;;;;5.73;5.13;;;24.50;87.20;;;;;;6170264;23;20721;-68
2023/08/19 03:24:57;;;;;;;5.53;5.03;;;24.50;87.30;;;;;;6171327;23;20408;-69
2023/08/19 03:27:25;;;;;;;5.20;4.80;;;24.50;87.40;;;;;;6169946;23;20440;-69
2023/08/19 03:29:54;;;;;;;6.50;5.90;;;24.50;87.30;;;;;;6172307;23;20524;-69
2023/08/19 03:32:22;;;;;;;5.50;5.00;;;24.50;87.30;;;;;;6170338;23;20424;-68
2023/08/19 03:34:50;;;;;;;5.60;4.87;;;24.50;87.30;;;;;;6171021;23;20493;-69
2023/08/19 03:37:20;;;;;;;5.40;5.00;;;24.50;87.20;;;;;;6171828;23;20433;-69
2023/08/19 03:39:49;;;;;;;5.87;5.40;;;24.50;87.20;;;;;;6172166;23;20403;-68
2023/08/19 03:42:17;;;;;;;5.80;5.03;;;24.50;87.20;;;;;;6145830;23;20433;-70
2023/08/19 03:44:46;;;;;;;5.73;5.17;;;24.50;87.10;;;;;;6172145;23;20730;-70
2023/08/19 03:47:14;;;;;;;5.40;4.97;;;24.50;87.10;;;;;;6171305;23;20448;-69
2023/08/19 03:49:43;;;;;;;5.50;5.00;;;24.50;87.00;;;;;;6172254;23;20410;-69
2023/08/19 03:52:11;;;;;;;6.20;5.50;;;24.50;87.00;;;;;;6172327;23;20926;-69
2023/08/19 03:54:42;;;;;;;5.73;5.23;;;24.50;86.90;;;;;;6172058;23;20458;-67
2023/08/19 03:57:10;;;;;;;5.50;5.10;;;24.50;86.90;;;;;;6170394;23;20914;-69
2023/08/19 03:59:38;;;;;;;5.33;4.93;;;24.50;86.90;;;;;;6171803;23;20389;-69
2023/08/19 04:02:07;;;;;;;5.50;5.00;;;24.50;86.90;;;;;;6170652;23;20778;-69
2023/08/19 04:04:37;;;;;;;5.80;5.20;;;24.50;86.80;;;;;;6170549;23;20416;-70
2023/08/19 04:07:05;;;;;;;5.57;4.60;;;24.50;86.80;;;;;;6170562;23;21021;-71
2023/08/19 04:09:33;;;;;;;5.13;4.73;;;24.50;86.80;;;;;;6172591;23;20401;-69
2023/08/19 04:12:05;;;;;;;4.90;4.50;;;24.50;86.80;;;;;;6171199;23;20506;-69
2023/08/19 04:14:33;;;;;;;5.30;4.90;;;24.50;86.70;;;;;;6172014;23;20374;-70
2023/08/19 04:17:02;;;;;;;5.00;4.50;;;24.50;86.80;;;;;;6171059;23;20918;-69
2023/08/19 04:19:30;;;;;;;6.07;4.50;;;24.50;86.90;;;;;;6171364;23;20399;-70
2023/08/19 04:21:59;;;;;;;6.07;5.33;;;24.40;86.90;;;;;;6170983;23;20440;-69
2023/08/19 04:24:27;;;;;;;5.60;5.10;;;24.40;87.00;;;;;;6172133;23;20393;-69
2023/08/19 04:26:57;;;;;;;5.20;4.70;;;24.40;87.10;;;;;;6170838;23;20441;-69
2023/08/19 04:29:27;;;;;;;5.20;4.80;;;24.40;87.00;;;;;;6171822;23;20500;-70
2023/08/19 04:31:56;;;;;;;5.73;5.17;;;24.40;87.10;;;;;;6171548;23;20953;-69
2023/08/19 04:34:25;;;;;;;5.40;4.90;;;24.40;87.00;;;;;;6171923;23;20393;-69
2023/08/19 04:36:55;;;;;;;5.53;4.80;;;24.40;87.00;;;;;;6172168;23;20436;-69
2023/08/19 04:39:24;;;;;;;5.87;5.23;;;24.40;87.00;;;;;;6173713;23;20425;-70
2023/08/19 04:41:56;;;;;;;5.77;5.33;;;24.40;87.00;;;;;;6171534;23;20538;-69
2023/08/19 04:44:29;;;;;;;6.40;5.87;;;24.40;86.90;;;;;;6172002;23;20448;-69
2023/08/19 04:46:59;;;;;;;4.47;4.10;;;24.40;86.70;;;;;;6171026;23;20490;-69
2023/08/19 04:49:28;;;;;;;5.50;5.00;;;24.40;86.50;;;;;;6171139;23;20391;-69
2023/08/19 04:52:00;;;;;;;4.90;4.40;;;24.40;86.60;;;;;;6146504;23;20501;-69
2023/08/19 04:54:28;;;;;;;5.23;4.83;;;24.40;86.40;;;;;;6172220;23;20401;-70
2023/08/19 04:56:57;;;;;;;4.97;4.57;;;24.40;86.40;;;;;;6171727;23;20494;-70
2023/08/19 04:59:25;;;;;;;5.00;4.50;;;24.40;86.20;;;;;;6173260;23;20389;-69
2023/08/19 05:01:55;;;;;;;5.50;4.83;;;24.40;86.00;;;;;;6171426;23;20436;-69
2023/08/19 05:04:24;;;;;;;5.70;5.20;;;24.40;86.10;;;;;;6171610;23;20396;-69
2023/08/19 05:06:53;;;;;;;5.53;5.00;;;24.40;86.00;;;;;;6171071;23;20472;-69
2023/08/19 05:09:22;;;;;;;5.47;4.97;;;24.40;86.00;;;;;;6171964;23;20912;-69
2023/08/19 05:11:50;;;;;;;5.03;4.63;;;24.40;86.00;;;;;;6170867;23;20428;-69
2023/08/19 05:14:19;;;;;;;4.63;4.23;;;24.40;86.00;;;;;;6170430;23;20461;-67
2023/08/19 05:16:47;;;;;;;4.77;4.23;;;24.40;86.10;;;;;;6146008;23;20441;-68
2023/08/19 05:19:18;;;;;;;4.93;4.40;;;24.40;86.10;;;;;;6171308;23;20861;-69
2023/08/19 05:21:49;;;;;;;5.20;4.70;;;24.40;86.10;;;;;;6170865;23;20519;-69
2023/08/19 05:24:18;;;;;;;4.77;4.37;;;24.40;86.00;;;;;;6171328;23;20379;-70
2023/08/19 05:26:46;;;;;;;4.40;4.00;;;24.40;85.90;;;;;;6170556;23;20440;-69
2023/08/19 05:29:16;;;;;;;5.03;4.30;;;24.40;85.90;;;;;;6172735;23;20473;-70
2023/08/19 05:31:44;;;;;;;4.93;4.53;;;24.40;85.80;;;;;;6170970;23;20474;-69
2023/08/19 05:34:13;;;;;;;6.03;5.43;;;24.40;85.70;;;;;;6171033;23;20429;-70
2023/08/19 05:36:42;;;;;;;4.80;4.43;;;24.40;85.70;;;;;;6169589;23;20528;-69
2023/08/19 05:39:11;;;;;;;7.40;5.10;;;24.40;85.80;;;;;;6171647;23;20505;-69
2023/08/19 05:41:39;;;;;;;5.03;4.47;;;24.40;85.70;;;;;;6170339;23;20432;-69
2023/08/19 05:44:08;;;;;;;7.70;5.27;;;24.40;85.80;;;;;;6170484;23;20434;-69
2023/08/19 05:46:39;;;;;;;4.40;4.00;;;24.40;85.80;;;;;;6170600;23;20786;-69
2023/08/19 05:49:08;;;;;;;4.80;4.40;;;24.40;85.70;;;;;;6171708;23;20385;-68
2023/08/19 05:51:36;;;;;;;4.97;4.57;;;24.40;85.90;;;;;;6169825;23;20424;-69
2023/08/19 05:54:07;;;;;;;5.30;4.50;;;24.40;85.90;;;;;;6171682;23;20393;-69
2023/08/19 05:56:35;;;;;;;7.97;5.13;;;24.40;85.90;;;;;;6170669;23;20493;-69
2023/08/19 05:59:04;;;;;;;4.90;4.50;;;24.40;85.80;;;;;;6170990;23;20715;-68
2023/08/19 06:01:32;;;;;;;4.93;4.30;;;24.40;85.70;;;;;;6170938;23;20913;-69
2023/08/19 06:04:00;;;;;;;4.60;4.20;;;24.40;85.80;;;;;;6171578;23;20393;-69
2023/08/19 06:06:29;;;;;;;5.30;4.83;;;24.40;85.80;;;;;;6171537;23;20809;-69
2023/08/19 06:08:57;;;;;;;4.93;4.53;;;24.30;85.70;;;;;;6171098;23;20419;-69
2023/08/19 06:11:27;;;;;;;4.47;4.07;;;24.40;85.80;;;;;;6170201;23;20483;-69
2023/08/19 06:13:55;;;;;;;4.87;3.80;;;24.40;86.00;;;;;;6170268;23;20445;-69
2023/08/19 06:16:24;;;;;;;4.97;4.47;;;24.30;85.90;;;;;;6170624;23;20460;-69
2023/08/19 06:18:52;;;;;;;4.50;4.10;;;24.40;86.00;;;;;;6171213;23;20450;-69
2023/08/19 06:21:21;;;;;;;4.27;3.97;;;24.40;86.10;;;;;;6169438;23;20456;-68
2023/08/19 06:23:49;;;;;;;4.50;4.10;;;24.40;85.90;;;;;;6171971;23;20384;-69
2023/08/19 06:26:17;;;;;;;6.20;4.30;;;24.40;85.90;;;;;;6171820;23;20500;-69
2023/08/19 06:28:47;;;;;;;6.87;4.67;;;24.40;86.10;;;;;;6172347;23;20428;-69
2023/08/19 06:31:16;;;;;;;4.73;4.30;;;24.40;86.30;;;;;;6171702;23;20462;-69
2023/08/19 06:33:50;;;;;;;5.77;4.73;;;24.40;86.50;;;;;;6171673;23;20377;-69
2023/08/19 06:36:24;;;;;;;5.10;4.70;;;24.40;86.60;;;;;;6171863;23;20424;-69
2023/08/19 06:39:03;;;;;;;4.63;4.10;;;24.40;86.90;;;;;;6172713;23;20373;-69
2023/08/19 06:41:35;;;;;;;5.00;4.47;;;24.40;87.10;;;;;;6171158;23;20455;-69
2023/08/19 06:44:08;;;;;;;5.43;4.90;;;24.40;87.20;;;;;;6172440;23;20393;-69
2023/08/19 06:46:37;;;;;;;5.13;4.43;;;24.40;87.60;;;;;;6170787;23;20447;-69
2023/08/19 06:49:06;;;;;;;4.80;4.40;;;24.40;87.50;;;;;;6171455;23;20452;-69
2023/08/19 06:51:35;;;;;;;5.63;5.17;;;24.40;88.40;;;;;;6170693;23;20429;-69
2023/08/19 06:54:05;;;;;;;6.53;4.60;;;24.40;88.50;;;;;;6171517;23;20412;-69
2023/08/19 06:56:38;;;;;;;5.67;4.57;;;24.40;89.50;;;;;;6171542;23;20444;-69
2023/08/19 06:59:13;;;;;;;11.93;5.13;;;24.40;89.60;;;;;;6172119;23;20729;-70
2023/08/19 07:01:44;;;;;;;8.67;4.80;;;24.30;89.70;;;;;;6173297;22;20435;-69
2023/08/19 07:04:14;;;;;;;5.60;5.10;;;24.30;89.50;;;;;;6172747;23;20438;-69
2023/08/19 07:06:43;;;;;;;5.97;4.80;;;24.40;90.00;;;;;;6173512;22;20747;-69
2023/08/19 07:09:12;;;;;;;5.73;4.63;;;24.40;90.00;;;;;;6172497;23;20432;-69
2023/08/19 07:11:41;;;;;;;5.23;4.73;;;24.40;90.00;;;;;;6171440;23;20482;-69
2023/08/19 07:14:12;;;;;;;5.17;4.67;;;24.40;90.00;;;;;;6170728;23;20404;-68
2023/08/19 07:16:40;;;;;;;6.87;4.57;;;24.30;90.00;;;;;;6171572;23;20436;-69
2023/08/19 07:19:14;;;;;;;7.20;4.77;;;24.40;90.10;;;;;;6171689;23;20401;-70
2023/08/19 07:21:46;;;;;;;4.70;4.20;;;24.40;90.20;;;;;;6171242;23;20439;-70
2023/08/19 07:24:16;;;;;;;7.03;5.37;;;24.40;90.40;;;;;;6171270;23;20388;-68
2023/08/19 07:26:47;;;;;;;5.30;4.90;;;24.40;90.40;;;;;;6172420;22;20441;-70
2023/08/19 07:29:17;;;;;;;5.03;4.57;;;24.40;90.20;;;;;;6171381;23;20470;-68
2023/08/19 07:31:48;;;;;;;5.70;4.43;;;24.40;90.20;;;;;;6170646;23;20717;-69
2023/08/19 07:34:16;;;;;;;5.07;4.57;;;24.40;90.70;;;;;;6170765;23;20835;-69
2023/08/19 07:36:45;;;;;;;8.60;4.70;;;24.40;90.20;;;;;;6170653;23;20436;-69
2023/08/19 07:39:13;;;;;;;6.60;5.30;;;24.40;90.30;;;;;;6172118;23;20383;-72
2023/08/19 07:41:42;;;;;;;5.23;4.73;;;24.40;90.40;;;;;;6171307;23;20250;-71
2023/08/19 07:44:10;;;;;;;5.07;4.67;;;24.40;90.00;;;;;;6172836;23;20437;-72
2023/08/19 07:46:40;;;;;;;5.33;4.40;;;24.40;89.50;;;;;;6170935;23;20448;-72
2023/08/19 07:49:08;;;;;;;5.57;4.77;;;24.50;90.00;;;;;;6171947;23;20449;-72
2023/08/19 07:51:36;;;;;;;5.20;4.80;;;24.50;90.10;;;;;;6170074;23;21066;-73
2023/08/19 07:54:06;;;;;;;8.20;5.60;;;24.50;90.30;;;;;;6170465;23;20399;-68
2023/08/19 07:56:34;;;;;;;5.70;4.73;;;24.50;90.80;;;;;;6170384;23;21024;-68
2023/08/19 07:59:03;;;;;;;6.10;5.07;;;24.50;91.10;;;;;;6146042;23;20446;-69
2023/08/19 08:01:31;;;;;;;6.07;4.90;;;24.50;91.50;;;;;;6170908;23;20504;-69
2023/08/19 08:04:21;;;;;;;6.93;5.37;;;24.50;91.00;;;;;;6170378;23;20523;-68
2023/08/19 08:07:08;;;;;;;5.57;5.03;;;24.50;91.10;;;;;;6172384;22;20486;-70
2023/08/19 08:09:37;;;;;;;9.83;4.90;;;24.50;91.00;;;;;;6171476;23;20439;-68
2023/08/19 08:12:06;;;;;;;5.30;4.80;;;24.50;90.80;;;;;;6171770;22;20932;-69
2023/08/19 08:14:34;;;;;;;5.60;5.10;;;24.50;90.80;;;;;;6170818;23;20392;-69
2023/08/19 08:17:03;;;;;;;6.43;4.93;;;24.40;90.90;;;;;;6170444;23;20774;-69
2023/08/19 08:19:32;;;;;;;6.73;5.50;;;24.40;90.80;;;;;;6169902;23;20920;-69
2023/08/19 08:22:01;;;;;;;4.57;4.17;;;24.40;90.80;;;;;;6170573;23;20440;-68
2023/08/19 08:24:30;;;;;;;6.23;4.63;;;24.40;90.70;;;;;;6171951;23;20393;-67
2023/08/19 08:26:58;;;;;;;5.40;5.00;;;24.40;90.70;;;;;;6170515;23;20779;-69
2023/08/19 08:29:26;;;;;;;6.10;4.60;;;24.40;90.70;;;;;;6170386;23;20914;-69
2023/08/19 08:31:55;;;;;;;5.90;4.90;;;24.40;90.70;;;;;;6170431;23;20435;-69
2023/08/19 08:34:23;;;;;;;5.83;5.23;;;24.40;90.60;;;;;;6170359;23;20735;-68
2023/08/19 08:36:53;;;;;;;6.00;4.83;;;24.40;90.60;;;;;;6171752;22;20440;-69
2023/08/19 08:39:21;;;;;;;5.97;5.10;;;24.40;90.50;;;;;;6170820;23;20405;-68
2023/08/19 08:41:51;;;;;;;5.67;3.83;;;24.40;90.40;;;;;;6169999;23;20432;-69
2023/08/19 08:44:20;;;;;;;5.37;4.87;;;24.40;90.30;;;;;;6171905;23;20408;-68
2023/08/19 08:46:51;;;;;;;5.20;4.70;;;24.50;90.30;;;;;;6171179;23;20787;-68
2023/08/19 08:49:20;;;;;;;4.90;4.50;;;24.50;90.20;;;;;;6171216;23;20428;-68
2023/08/19 08:51:48;;;;;;;4.77;4.27;;;24.50;90.10;;;;;;6170509;23;20424;-68
2023/08/19 08:54:20;;;;;;;5.20;4.80;;;24.40;90.00;;;;;;6172700;23;20386;-68
2023/08/19 08:56:49;;;;;;;5.23;4.10;;;24.50;89.80;;;;;;6170155;23;20977;-69
2023/08/19 08:59:36;;;;;;;4.20;3.83;;;24.40;89.40;;;;;;6170954;23;20364;-69
2023/08/19 09:02:26;;;;;;;4.57;4.17;;;24.50;89.40;;;;;;6169901;23;21145;-68
2023/08/19 09:05:15;;;;;;;5.47;4.40;;;24.40;89.00;;;;;;6171672;23;20446;-69
2023/08/19 09:08:04;;;;;;;5.80;4.80;;;24.50;89.00;;;;;;6170890;23;20427;-67
2023/08/19 09:10:35;;;;;;;4.70;4.20;;;24.50;88.90;;;;;;6173306;23;20384;-69
2023/08/19 09:13:05;;;;;;;4.97;4.57;;;24.50;88.60;;;;;;6169828;23;20389;-69
2023/08/19 09:15:34;;;;;;;4.27;3.93;;;24.50;88.40;;;;;;6169965;23;21036;-69
2023/08/19 09:18:03;;;;;;;5.23;4.70;;;24.50;88.40;;;;;;6171198;23;20433;-70
2023/08/19 09:20:33;;;;;;;4.87;4.10;;;24.50;88.40;;;;;;6171206;22;20797;-69
2023/08/19 09:23:06;;;;;;;4.93;3.93;;;24.50;88.20;;;;;;6170680;23;20446;-69
2023/08/19 09:25:38;;;;;;;4.83;4.43;;;24.50;87.60;;;;;;6172064;23;20459;-69
2023/08/19 09:28:06;;;;;;;4.27;3.90;;;24.50;87.90;;;;;;6171961;23;20472;-69
2023/08/19 09:30:35;;;;;;;5.07;4.67;;;24.50;87.90;;;;;;6170376;23;20515;-68
2023/08/19 09:33:04;;;;;;;5.20;4.80;;;24.50;87.80;;;;;;6170776;23;20745;-69
2023/08/19 09:35:37;;;;;;;5.20;4.70;;;24.50;87.70;;;;;;6170814;23;20480;-69
2023/08/19 09:38:25;;;;;;;4.40;4.00;;;24.50;87.60;;;;;;6170736;23;20377;-69
2023/08/19 09:41:06;;;;;;;4.60;4.20;;;24.50;87.40;;;;;;6171642;23;20743;-68
2023/08/19 09:43:38;;;;;;;4.23;3.93;;;24.50;87.40;;;;;;6169935;23;20381;-69
2023/08/19 09:46:07;;;;;;;3.97;3.67;;;24.50;87.10;;;;;;6169914;23;20813;-69
2023/08/19 09:48:36;;;;;;;4.07;3.77;;;24.50;87.10;;;;;;6171042;23;20384;-69
2023/08/19 09:51:05;;;;;;;4.40;3.97;;;24.50;86.80;;;;;;6171168;23;20910;-69
2023/08/19 09:53:33;;;;;;;4.70;4.30;;;24.50;86.90;;;;;;6170200;23;20389;-69
2023/08/19 09:56:03;;;;;;;4.43;4.03;;;24.50;86.90;;;;;;6169517;23;20448;-69
2023/08/19 09:58:31;;;;;;;4.27;3.97;;;24.50;86.80;;;;;;6169821;23;20407;-69
2023/08/19 10:00:59;;;;;;;4.63;4.23;;;24.50;86.80;;;;;;6171856;23;20388;-69
2023/08/19 10:03:28;;;;;;;4.80;4.00;;;24.50;86.90;;;;;;6172168;23;20828;-68
2023/08/19 10:05:57;;;;;;;4.40;4.10;;;24.50;87.00;;;;;;6170840;23;20447;-69
2023/08/19 10:08:31;;;;;;;4.43;4.03;;;24.50;87.10;;;;;;6172608;23;20408;-69
2023/08/19 10:11:20;;;;;;;4.07;3.77;;;24.50;87.00;;;;;;6172581;23;20448;-69
2023/08/19 10:13:49;;;;;;;4.40;3.90;;;24.50;87.00;;;;;;6171424;23;20412;-68
2023/08/19 10:16:18;;;;;;;4.67;3.70;;;24.50;88.40;;;;;;6171327;23;20494;-70
2023/08/19 10:18:47;;;;;;;3.60;3.30;;;24.50;87.20;;;;;;6174138;23;20401;-68
2023/08/19 10:21:17;;;;;;;4.53;4.13;;;24.50;86.90;;;;;;6144910;23;20440;-68
2023/08/19 10:23:47;;;;;;;4.73;4.03;;;24.50;87.00;;;;;;6172769;23;20400;-69
2023/08/19 10:26:16;;;;;;;4.33;3.93;;;24.50;87.00;;;;;;6174048;23;20728;-69
2023/08/19 10:29:03;;;;;;;4.43;4.10;;;24.50;87.10;;;;;;6172844;23;20438;-69
2023/08/19 10:31:32;;;;;;;4.13;3.83;;;24.50;87.20;;;;;;6173039;23;20440;-69
2023/08/19 10:34:00;;;;;;;4.57;4.17;;;24.50;87.00;;;;;;6171772;23;20399;-69
2023/08/19 10:36:29;;;;;;;4.93;4.30;;;24.60;87.20;;;;;;6173201;23;20425;-68
2023/08/19 10:39:00;;;;;;;4.40;4.00;;;24.60;87.20;;;;;;6171618;23;20429;-69
2023/08/19 10:41:30;;;;;;;5.27;4.77;;;24.60;87.30;;;;;;6172604;23;20373;-69
2023/08/19 10:44:01;;;;;;;5.57;4.90;;;24.50;87.20;;;;;;6170587;23;20404;-68
2023/08/19 10:46:34;;;;;;;5.73;4.30;;;24.60;87.30;;;;;;6170798;23;20467;-68
2023/08/19 10:49:03;;;;;;;4.50;4.10;;;24.60;87.20;;;;;;6172339;23;20385;-69
2023/08/19 10:51:53;;;;;;;5.23;4.83;;;24.50;87.20;;;;;;6170533;23;20388;-68
2023/08/19 10:54:27;;;;;;;4.40;4.00;;;24.60;87.30;;;;;;6173149;23;20384;-69
2023/08/19 10:57:11;;;;;;;4.37;4.07;;;24.60;87.30;;;;;;6170396;23;20765;-69
2023/08/19 10:59:42;;;;;;;4.53;4.20;;;24.60;87.20;;;;;;6170934;23;20393;-69
2023/08/19 11:02:11;;;;;;;4.83;4.40;;;24.60;87.30;;;;;;6170827;23;20444;-69
2023/08/19 11:04:41;;;;;;;4.67;4.27;;;24.60;87.20;;;;;;6170573;23;20401;-69
2023/08/19 11:07:11;;;;;;;4.90;4.50;;;24.60;87.10;;;;;;6170977;23;20459;-69
2023/08/19 11:09:41;;;;;;;5.63;5.13;;;24.60;87.10;;;;;;6172164;23;20735;-69
2023/08/19 11:12:10;;;;;;;4.97;4.57;;;24.60;87.20;;;;;;6170135;23;20501;-69
2023/08/19 11:14:39;;;;;;;5.03;4.53;;;24.60;87.30;;;;;;6171312;23;20400;-70
2023/08/19 11:17:08;;;;;;;8.27;7.43;;;24.60;87.30;;;;;;6170433;23;20437;-70
2023/08/19 11:19:37;;;;;;;8.60;7.70;;;25.00;95.40;;;;;;6170154;23;20393;-68
2023/08/19 11:22:05;;;;;;;8.43;7.73;;;25.10;94.60;;;;;;6170207;23;20860;-69
2023/08/19 11:24:34;;;;;;;9.80;7.40;;;25.10;95.60;;;;;;6171149;23;20405;-69
2023/08/19 11:27:03;;;;;;;9.00;7.47;;;25.00;94.70;;;;;;6170770;23;20448;-69
2023/08/19 11:29:31;;;;;;;8.50;7.70;;;25.00;95.00;;;;;;6170892;22;20397;-69
2023/08/19 11:32:01;;;;;;;8.20;7.37;;;24.90;94.90;;;;;;6171015;23;20503;-70
2023/08/19 11:34:30;;;;;;;7.90;7.30;;;24.90;94.80;;;;;;6170106;23;20949;-70
2023/08/19 11:36:59;;;;;;;7.50;6.80;;;24.90;94.90;;;;;;6170550;23;20440;-69
2023/08/19 11:39:32;;;;;;;7.90;7.17;;;24.80;94.90;;;;;;6171806;23;20757;-69
2023/08/19 11:42:02;;;;;;;7.60;6.93;;;24.80;94.80;;;;;;6170463;23;20424;-68
2023/08/19 11:44:32;;;;;;;7.57;6.77;;;24.80;94.70;;;;;;6170645;23;20389;-69
2023/08/19 11:47:01;;;;;;;8.13;7.20;;;24.70;94.60;;;;;;6170516;23;20486;-68
2023/08/19 11:49:32;;;;;;;7.57;6.97;;;24.80;94.50;;;;;;6172552;23;20369;-69
2023/08/19 11:52:00;;;;;;;6.90;6.30;;;24.80;94.50;;;;;;6171971;23;20813;-69
2023/08/19 11:54:29;;;;;;;6.33;5.93;;;24.70;94.40;;;;;;6170756;23;20864;-68
2023/08/19 11:57:01;;;;;;;7.43;6.83;;;24.70;94.40;;;;;;6169764;23;20451;-69
2023/08/19 11:59:31;;;;;;;6.93;6.33;;;24.70;94.30;;;;;;6172256;23;20378;-69
2023/08/19 12:02:03;;;;;;;8.10;7.40;;;24.70;94.30;;;;;;6169919;23;21021;-67
2023/08/19 12:04:34;;;;;;;6.90;6.40;;;24.70;94.10;;;;;;6171372;23;20715;-68
2023/08/19 12:07:05;;;;;;;7.67;6.83;;;24.70;94.10;;;;;;6172459;22;20436;-69
2023/08/19 12:09:35;;;;;;;9.23;6.63;;;24.70;94.20;;;;;;6170994;23;20377;-69
2023/08/19 12:12:09;;;;;;;8.13;6.73;;;24.70;94.20;;;;;;6171852;22;20448;-67
2023/08/19 12:14:39;;;;;;;7.30;6.67;;;24.70;94.10;;;;;;6170966;23;20377;-70
2023/08/19 12:17:09;;;;;;;7.57;6.70;;;24.70;94.30;;;;;;6170469;23;20436;-69
2023/08/19 12:19:38;;;;;;;6.70;6.20;;;24.70;94.30;;;;;;6170919;23;21229;-68
2023/08/19 12:22:08;;;;;;;7.60;7.00;;;24.70;94.40;;;;;;6170131;23;20433;-68
2023/08/19 12:24:36;;;;;;;7.50;6.90;;;24.70;94.30;;;;;;6170952;23;20393;-69
2023/08/19 12:27:05;;;;;;;7.07;6.23;;;24.70;94.40;;;;;;6170104;23;20479;-69
2023/08/19 12:29:33;;;;;;;7.07;6.47;;;24.70;94.40;;;;;;6171645;23;20432;-68
2023/08/19 12:32:02;;;;;;;7.67;6.97;;;24.70;94.20;;;;;;6170717;23;20508;-69
2023/08/19 12:34:30;;;;;;;7.40;6.80;;;24.70;94.40;;;;;;6169808;23;20369;-69
2023/08/19 12:37:00;;;;;;;7.40;6.70;;;24.70;94.50;;;;;;6170807;23;20452;-68
2023/08/19 12:39:31;;;;;;;7.50;6.90;;;24.70;94.40;;;;;;6171717;23;20863;-68
2023/08/19 12:41:59;;;;;;;7.10;6.60;;;24.70;94.30;;;;;;6171112;23;20465;-67
2023/08/19 12:44:28;;;;;;;7.63;6.87;;;24.70;94.30;;;;;;6170204;23;20393;-69
2023/08/19 12:46:56;;;;;;;7.70;6.60;;;24.70;94.40;;;;;;6171647;23;20440;-68
2023/08/19 12:49:25;;;;;;;7.43;6.73;;;24.70;94.30;;;;;;6170627;23;20433;-69
2023/08/19 12:51:53;;;;;;;7.87;7.03;;;24.70;94.40;;;;;;6170961;23;20464;-68
2023/08/19 12:54:23;;;;;;;7.80;7.10;;;24.70;94.40;;;;;;6170918;23;20397;-69
2023/08/19 12:56:51;;;;;;;7.40;6.80;;;24.70;94.20;;;;;;6170982;23;20438;-69
2023/08/19 12:59:20;;;;;;;7.63;7.13;;;24.70;94.30;;;;;;6173160;23;20404;-69
2023/08/19 13:01:48;;;;;;;9.20;7.47;;;24.70;94.40;;;;;;6169795;23;20437;-68
2023/08/19 13:04:16;;;;;;;7.73;7.03;;;24.70;94.40;;;;;;6171437;23;20438;-68